ESMS/MMX METAR and TAF weather

Enter ICAO airport designator
Station Type Date Time Source
ESMS METAR 2020/02/26 10:50 UTC NOAA

ESMS 261050Z 33009KT 9999 SCT008 BKN012 BKN023 02/01 Q0989


Station Type Date Time Source
ESMS Decoded METAR 2020/02/26 10:50 UTC NOAA

Malmo / Sturup, Sweden (ESMS) 55-33N 013-22E
Feb 26, 2020 - 05:50 AM EST / 2020.02.26 1050 UTC
Wind: from the NNW (330 degrees) at 10 MPH (9 KT):0
Visibility: greater than 7 mile(s):0
Sky conditions: mostly cloudy
Temperature: 35 F (2 C)
Windchill: 26 F (-3 C):1
Dew Point: 33 F (1 C)
Relative Humidity: 93%
Pressure (altimeter): 29.21 in. Hg (0989 hPa)
ob: ESMS 261050Z 33009KT 9999 SCT008 BKN012 BKN023 02/01 Q0989
cycle: 11

Station Type Date Time Source
ESMS TAF 2020/02/26 06:09 UTC NOAA

TAF TAF ESMS 260503Z 2606/2706 28010KT 4000 -RASN BKN004
BECMG 2606/2608 31008KT 9999 BKN020
TEMPO 2608/2615 BKN012

Example: see airport list